Time;durP1;ratioP1;P1;durP2;ratioP2;P2;SDS_P1;SDS_P2;PMS_P1;PMS_P2;Temp;Humidity;BMP_temperature;BMP_pressure;BME280_temperature;BME280_humidity;BME280_pressure;Samples;Min_cycle;Max_cycle;Signal;HPM_P1;HPM_P2
2022/09/12 00:01:47;;;;;;;14.80;9.65;;;;;;;12.61;65.03;99834.56;4964729;29;20034;-62
2022/09/12 00:04:12;;;;;;;13.32;9.88;;;;;;;12.57;65.98;99827.78;4950226;29;20051;-62
2022/09/12 00:06:38;;;;;;;15.85;9.80;;;;;;;12.49;65.46;99835.78;4971108;28;20027;-61
2022/09/12 00:09:08;;;;;;;13.90;9.68;;;;;;;12.48;66.88;99849.66;4958616;29;20335;-61
2022/09/12 00:11:36;;;;;;;13.50;9.43;;;;;;;12.46;67.63;99837.63;4945632;29;20058;-61
2022/09/12 00:14:03;;;;;;;14.07;9.77;;;;;;;12.47;67.56;99831.50;4946020;29;20079;-61
2022/09/12 00:16:31;;;;;;;14.48;9.57;;;;;;;12.12;67.01;99776.19;4945273;29;20039;-61
2022/09/12 00:18:56;;;;;;;15.45;9.30;;;;;;;12.40;67.95;99823.88;4958695;29;20042;-62
2022/09/12 00:21:23;;;;;;;16.40;9.75;;;;;;;12.37;67.83;99830.88;4971454;28;20320;-62
2022/09/12 00:23:50;;;;;;;13.32;9.18;;;;;;;12.29;68.58;99823.31;4945577;29;20043;-63
2022/09/12 00:26:17;;;;;;;11.95;9.48;;;;;;;12.26;69.64;99831.19;4946462;29;20390;-62
2022/09/12 00:28:43;;;;;;;13.20;9.90;;;;;;;12.22;69.13;99820.03;4946156;29;20055;-62
2022/09/12 00:31:11;;;;;;;14.07;9.73;;;;;;;11.91;68.11;99780.97;4946288;29;20353;-62
2022/09/12 00:33:37;;;;;;;12.93;9.00;;;;;;;12.22;68.80;99819.19;4946207;29;20031;-61
2022/09/12 00:36:05;;;;;;;13.15;9.45;;;;;;;12.18;70.05;99817.56;4945677;29;20066;-61
2022/09/12 00:38:32;;;;;;;14.70;9.85;;;;;;;12.20;71.16;99816.63;4944789;29;20046;-61
2022/09/12 00:40:57;;;;;;;18.75;9.82;;;;;;;12.16;71.25;99816.75;4946303;29;20039;-61
2022/09/12 00:43:28;;;;;;;14.40;9.10;;;;;;;12.06;70.69;99808.34;4945634;29;20031;-62
2022/09/12 00:46:01;;;;;;;13.95;10.13;;;;;;;11.93;71.41;99815.56;4976476;28;20032;-61
2022/09/12 00:48:34;;;;;;;15.25;10.02;;;;;;;11.76;71.28;99818.56;4945746;29;20042;-61
2022/09/12 00:51:00;;;;;;;14.65;10.05;;;;;;;11.78;71.55;99811.56;4960827;28;20031;-61
2022/09/12 00:53:26;;;;;;;13.90;9.25;;;;;;;11.76;71.85;99800.41;4946473;29;20030;-61
2022/09/12 00:55:54;;;;;;;13.38;9.45;;;;;;;11.58;70.92;99749.81;4965191;29;20027;-62
2022/09/12 00:58:43;;;;;;;13.43;9.65;;;;;;;11.94;72.36;99803.44;4949413;29;20019;-62
2022/09/12 01:01:08;;;;;;;11.80;9.05;;;;;;;11.97;71.43;99801.66;4955197;28;20043;-62
2022/09/12 01:03:34;;;;;;;13.98;9.88;;;;;;;12.00;73.10;99798.09;4955318;29;20050;-62
2022/09/12 01:06:24;;;;;;;13.60;9.32;;;;;;;11.97;74.00;99800.78;4950625;29;20028;-63
2022/09/12 01:08:51;;;;;;;14.38;9.98;;;;;;;11.98;72.27;99803.31;4965086;29;20050;-62
2022/09/12 01:11:19;;;;;;;13.50;9.98;;;;;;;12.03;71.53;99805.84;4964921;29;20110;-62
2022/09/12 01:13:45;;;;;;;12.68;9.52;;;;;;;11.99;71.60;99786.03;4945961;29;20028;-62
2022/09/12 01:16:11;;;;;;;13.15;9.68;;;;;;;12.01;72.06;99800.66;4945568;29;20098;-62
2022/09/12 01:18:59;;;;;;;16.05;10.30;;;;;;;11.49;72.74;99745.69;4945547;29;20251;-62
2022/09/12 01:21:51;;;;;;;13.25;9.30;;;;;;;11.44;72.53;99744.94;4945457;29;20028;-63
2022/09/12 01:24:38;;;;;;;14.15;10.27;;;;;;;11.71;73.62;99792.75;4945482;29;20459;-63
2022/09/12 01:27:33;;;;;;;15.73;10.43;;;;;;;11.66;73.59;99794.56;4945043;29;20082;-63
2022/09/12 01:30:04;;;;;;;13.48;10.32;;;;;;;11.60;73.26;99786.09;4944264;29;20119;-63
2022/09/12 01:33:07;;;;;;;13.93;9.52;;;;;;;11.58;73.56;99786.97;4960412;29;20050;-63
2022/09/12 01:36:06;;;;;;;15.00;10.15;;;;;;;11.61;73.50;99787.78;4945464;29;20035;-64
2022/09/12 01:38:55;;;;;;;11.50;9.15;;;;;;;11.70;72.67;99787.56;4945167;29;20260;-62
2022/09/12 01:41:24;;;;;;;12.63;8.90;;;;;;;11.70;73.69;99804.00;4945244;29;20078;-62
2022/09/12 01:44:05;;;;;;;13.35;9.18;;;;;;;11.48;72.70;99737.97;4926257;29;20232;-62
2022/09/12 01:46:40;;;;;;;12.77;10.05;;;;;;;11.48;73.88;99736.22;4959478;29;20046;-62
2022/09/12 01:49:18;;;;;;;12.60;8.93;;;;;;;11.84;73.40;99793.28;4953081;29;20342;-61
2022/09/12 01:51:59;;;;;;;13.70;9.82;;;;;;;11.82;73.97;99795.03;4945233;29;20035;-62
2022/09/12 01:54:49;;;;;;;17.27;10.18;;;;;;;11.83;75.06;99796.75;4945294;29;20363;-62
2022/09/12 01:57:35;;;;;;;13.77;9.68;;;;;;;11.76;73.65;99810.78;4944920;29;20035;-62
2022/09/12 02:00:05;;;;;;;15.48;11.18;;;;;;;11.67;73.69;99774.66;4953043;29;20054;-62
2022/09/12 02:02:49;;;;;;;11.85;10.18;;;;;;;11.82;74.05;99795.03;4963502;29;20046;-61
2022/09/12 02:05:24;;;;;;;14.27;10.70;;;;;;;11.38;73.75;99740.75;4945255;29;20316;-61
2022/09/12 02:08:00;;;;;;;13.13;10.70;;;;;;;11.77;72.36;99806.44;4944887;29;20375;-62
2022/09/12 02:10:31;;;;;;;15.60;10.77;;;;;;;11.46;72.73;99729.34;4960613;29;20042;-61
2022/09/12 02:13:10;;;;;;;20.42;11.85;;;;;;;11.44;73.21;99795.97;4952127;29;20058;-62
2022/09/12 02:15:41;;;;;;;13.95;9.45;;;;;;;11.42;72.27;99754.53;4944918;29;20075;-63
2022/09/12 02:18:11;;;;;;;14.88;10.68;;;;;;;11.62;72.31;99792.09;4944739;29;20035;-62
2022/09/12 02:20:38;;;;;;;13.05;11.35;;;;;;;11.60;72.89;99789.53;4944678;29;20239;-62
2022/09/12 02:23:10;;;;;;;20.27;13.10;;;;;;;11.38;72.67;99763.25;4944795;29;20051;-62
2022/09/12 02:25:42;;;;;;;;;;;;;;;11.56;73.32;99788.75;4945118;29;20201;-62
2022/09/12 02:28:12;;;;;;;13.60;10.35;;;;;;;11.53;72.42;99786.25;4958014;29;19910;-62
2022/09/12 02:30:49;;;;;;;19.77;11.68;;;;;;;11.42;73.01;99796.00;4963753;29;20042;-62
2022/09/12 02:33:20;;;;;;;19.67;11.68;;;;;;;11.10;72.60;99734.53;4963798;29;20055;-62
2022/09/12 02:35:52;;;;;;;20.63;12.25;;;;;;;11.39;73.13;99791.75;4961536;29;20230;-62
2022/09/12 02:38:36;;;;;;;17.23;11.98;;;;;;;11.32;73.18;99778.97;4944670;29;20227;-62
2022/09/12 02:41:03;;;;;;;15.80;11.82;;;;;;;11.48;72.94;99784.63;4929111;29;20277;-63
2022/09/12 02:43:28;;;;;;;18.02;12.43;;;;;;;11.55;72.52;99783.59;4944622;29;20031;-62
2022/09/12 02:45:54;;;;;;;16.90;12.40;;;;;;;11.62;73.31;99782.56;4947907;29;20074;-62
2022/09/12 02:48:30;;;;;;;18.35;12.55;;;;;;;11.23;73.17;99734.22;4954316;29;20034;-62
2022/09/12 02:50:56;;;;;;;18.67;12.82;;;;;;;11.65;72.63;99797.22;4963443;29;20036;-62
2022/09/12 02:53:22;;;;;;;17.85;12.18;;;;;;;11.54;72.90;99782.75;4948114;29;20055;-62
2022/09/12 02:55:49;;;;;;;20.52;13.55;;;;;;;11.38;74.28;99791.78;4947529;29;20087;-62
2022/09/12 02:58:24;;;;;;;16.17;12.30;;;;;;;11.43;73.85;99795.13;4962420;29;20032;-62
2022/09/12 03:01:28;;;;;;;19.27;13.25;;;;;;;11.34;74.76;99792.72;4948506;29;20090;-61
2022/09/12 03:04:06;;;;;;;21.30;14.48;;;;;;;11.41;74.44;99794.28;4947442;29;20023;-61
2022/09/12 03:06:37;;;;;;;20.08;13.98;;;;;;;11.30;74.60;99791.09;4947475;29;20051;-61
2022/09/12 03:09:18;;;;;;;17.63;13.07;;;;;;;10.89;74.86;99736.72;4947645;29;20067;-61
2022/09/12 03:12:07;;;;;;;16.83;11.27;;;;;;;11.14;74.77;99786.25;4947472;29;20039;-60
2022/09/12 03:15:00;;;;;;;17.20;12.00;;;;;;;11.12;75.25;99792.38;4947509;29;20027;-62
2022/09/12 03:17:59;;;;;;;23.85;11.75;;;;;;;10.70;76.09;99737.13;4947376;29;20082;-61
2022/09/12 03:20:37;;;;;;;17.58;12.48;;;;;;;10.88;76.25;99800.63;4947267;29;20112;-61
2022/09/12 03:23:10;;;;;;;20.20;11.48;;;;;;;10.55;76.27;99739.19;4927928;29;20070;-63
2022/09/12 03:25:43;;;;;;;16.98;12.40;;;;;;;10.60;77.08;99739.91;4944499;29;20055;-62
2022/09/12 03:28:13;;;;;;;20.90;12.70;;;;;;;10.49;76.53;99745.34;4947064;29;20086;-62
2022/09/12 03:30:44;;;;;;;17.83;11.23;;;;;;;10.98;76.30;99797.84;4947013;29;20034;-62
2022/09/12 03:33:16;;;;;;;17.67;11.80;;;;;;;11.05;76.18;99821.00;4947007;29;20034;-61
2022/09/12 03:35:42;;;;;;;15.48;11.23;;;;;;;11.08;75.14;99788.97;4946900;29;20036;-61
2022/09/12 03:38:08;;;;;;;15.70;11.60;;;;;;;11.04;76.06;99795.13;4947011;29;20055;-62
2022/09/12 03:40:37;;;;;;;21.60;11.95;;;;;;;10.88;75.73;99800.63;4946504;29;20103;-61
2022/09/12 03:43:05;;;;;;;14.73;10.85;;;;;;;11.03;75.34;99803.78;4946625;29;20024;-62
2022/09/12 03:45:30;;;;;;;17.02;11.50;;;;;;;10.93;76.63;99804.84;4954704;29;20023;-63
2022/09/12 03:47:56;;;;;;;16.35;11.70;;;;;;;10.93;76.29;99812.63;4962816;29;20024;-63
2022/09/12 03:50:22;;;;;;;17.50;11.32;;;;;;;10.77;76.45;99801.72;4946434;29;20032;-63
2022/09/12 03:52:47;;;;;;;12.65;10.70;;;;;;;11.00;75.46;99799.53;4964602;29;20023;-64
2022/09/12 03:55:13;;;;;;;16.42;10.50;;;;;;;10.92;75.59;99800.59;4965742;29;20035;-63
2022/09/12 03:57:39;;;;;;;16.92;11.43;;;;;;;10.86;76.32;99789.44;4948668;29;20418;-62
2022/09/12 04:00:07;;;;;;;13.60;10.43;;;;;;;10.98;76.36;99787.47;4946145;29;20383;-62
2022/09/12 04:02:33;;;;;;;18.38;10.60;;;;;;;10.84;76.03;99767.88;4961065;29;20031;-62
2022/09/12 04:04:59;;;;;;;17.10;11.00;;;;;;;10.58;77.05;99791.75;4946504;29;20042;-62
2022/09/12 04:07:25;;;;;;;16.90;10.95;;;;;;;10.58;77.13;99790.91;4946109;29;20028;-62
2022/09/12 04:09:51;;;;;;;20.17;11.20;;;;;;;10.56;77.12;99797.84;4946245;29;20032;-62
2022/09/12 04:12:16;;;;;;;14.50;9.90;;;;;;;10.60;77.50;99778.75;4951968;29;20323;-63
2022/09/12 04:14:42;;;;;;;17.77;11.32;;;;;;;10.58;77.98;99794.34;4964424;29;20031;-63
2022/09/12 04:17:07;;;;;;;13.27;10.38;;;;;;;10.72;77.73;99799.25;4944925;29;20028;-62
2022/09/12 04:19:33;;;;;;;14.68;10.75;;;;;;;10.45;78.79;99798.06;4946183;29;20031;-62
2022/09/12 04:21:59;;;;;;;15.75;11.55;;;;;;;10.55;78.34;99796.16;4957326;29;20336;-63
2022/09/12 04:24:24;;;;;;;13.73;11.88;;;;;;;10.63;78.63;99794.22;4958343;29;20040;-61
2022/09/12 04:26:50;;;;;;;18.23;11.27;;;;;;;10.57;79.07;99789.19;4948068;29;20034;-61
2022/09/12 04:29:15;;;;;;;17.98;11.77;;;;;;;10.58;79.44;99796.09;4965267;29;20035;-62
2022/09/12 04:31:41;;;;;;;18.40;11.75;;;;;;;10.33;79.84;99801.69;4965218;29;20027;-62
2022/09/12 04:34:07;;;;;;;16.95;11.60;;;;;;;10.37;80.01;99800.78;4965258;29;20062;-61
2022/09/12 04:36:33;;;;;;;14.30;12.43;;;;;;;10.35;80.25;99794.78;4963952;29;20051;-62
2022/09/12 04:39:00;;;;;;;12.55;11.25;;;;;;;10.14;81.22;99796.84;4947669;29;20042;-62
2022/09/12 04:41:29;;;;;;;13.90;12.07;;;;;;;10.02;81.72;99808.25;4945192;29;20054;-62
2022/09/12 04:44:03;;;;;;;14.95;12.48;;;;;;;10.01;82.88;99821.22;4951169;29;20095;-62
2022/09/12 04:46:35;;;;;;;15.80;12.20;;;;;;;10.10;82.16;99808.13;4945708;29;20106;-62
2022/09/12 04:49:02;;;;;;;14.40;11.80;;;;;;;10.04;82.86;99810.81;4945149;29;20028;-62
2022/09/12 04:51:30;;;;;;;13.23;11.93;;;;;;;9.94;83.56;99794.59;4951757;29;20091;-61
2022/09/12 04:54:02;;;;;;;14.65;11.70;;;;;;;9.89;83.26;99818.84;4949137;29;20040;-60
2022/09/12 04:56:28;;;;;;;15.02;12.15;;;;;;;9.94;84.38;99811.88;4945611;29;20028;-61
2022/09/12 04:58:59;;;;;;;16.70;11.95;;;;;;;9.82;84.60;99806.00;4945114;29;20256;-63
2022/09/12 05:01:26;;;;;;;16.00;11.88;;;;;;;9.87;84.35;99800.75;4963767;28;20035;-61
2022/09/12 05:03:53;;;;;;;16.15;12.18;;;;;;;9.92;84.30;99800.66;4954360;29;20020;-60
2022/09/12 05:06:22;;;;;;;15.95;11.85;;;;;;;9.99;83.88;99805.72;4950814;29;20022;-60
2022/09/12 05:08:49;;;;;;;14.88;11.73;;;;;;;10.04;83.34;99781.50;4964264;29;20054;-60
2022/09/12 05:11:18;;;;;;;14.90;12.25;;;;;;;10.21;83.76;99802.75;4964663;29;20031;-61
2022/09/12 05:13:44;;;;;;;15.60;12.07;;;;;;;10.26;83.06;99800.09;4947671;29;20071;-61
2022/09/12 05:16:11;;;;;;;13.65;11.82;;;;;;;10.02;83.39;99805.69;4956264;29;20061;-61
2022/09/12 05:18:37;;;;;;;14.07;11.77;;;;;;;9.89;83.78;99803.31;4964544;29;20034;-61
2022/09/12 05:21:05;;;;;;;14.70;11.95;;;;;;;9.81;85.65;99788.78;4960885;29;20316;-61
2022/09/12 05:23:32;;;;;;;16.35;12.30;;;;;;;9.81;84.79;99800.88;4945083;29;20051;-62
2022/09/12 05:25:59;;;;;;;17.25;12.70;;;;;;;9.95;84.81;99795.47;4963949;29;20030;-62
2022/09/12 05:28:29;;;;;;;16.85;12.55;;;;;;;10.05;85.51;99794.44;4950255;29;20087;-61
2022/09/12 05:31:05;;;;;;;17.48;13.18;;;;;;;10.14;85.00;99794.25;4955300;29;20319;-62
2022/09/12 05:33:32;;;;;;;15.23;13.13;;;;;;;10.31;84.37;99796.53;4957236;29;20055;-62
2022/09/12 05:35:58;;;;;;;16.17;13.18;;;;;;;10.26;84.93;99802.66;4945057;29;20446;-61
2022/09/12 05:38:24;;;;;;;17.55;12.80;;;;;;;10.36;84.80;99801.66;4945241;29;20032;-61
2022/09/12 05:40:51;;;;;;;15.70;12.38;;;;;;;10.35;84.85;99799.97;4943646;29;20035;-61
2022/09/12 05:43:16;;;;;;;16.92;12.27;;;;;;;10.49;84.29;99789.34;4943526;29;20027;-61
2022/09/12 05:45:42;;;;;;;13.15;10.93;;;;;;;10.50;84.22;99798.81;4943637;29;20034;-60
2022/09/12 05:48:08;;;;;;;15.65;11.55;;;;;;;10.41;84.39;99783.47;4947417;29;20034;-61
2022/09/12 05:50:34;;;;;;;13.20;11.15;;;;;;;10.46;84.20;99787.66;4961694;29;20038;-62
2022/09/12 05:53:00;;;;;;;12.65;11.25;;;;;;;10.56;84.81;99788.34;4944353;29;20044;-62
2022/09/12 05:55:25;;;;;;;12.05;10.80;;;;;;;10.55;84.28;99788.38;4944603;29;20382;-62
2022/09/12 05:57:51;;;;;;;13.93;11.52;;;;;;;10.59;84.75;99792.59;4945136;29;20023;-61
2022/09/12 06:00:18;;;;;;;13.85;10.60;;;;;;;10.76;85.00;99795.72;4954828;29;20023;-61
2022/09/12 06:02:43;;;;;;;14.38;11.52;;;;;;;10.64;84.72;99791.63;4964177;29;20196;-61
2022/09/12 06:05:09;;;;;;;14.65;11.80;;;;;;;10.65;85.06;99788.16;4964123;29;20039;-61
2022/09/12 06:07:35;;;;;;;12.25;10.50;;;;;;;10.71;84.60;99794.94;4948812;29;20067;-61
2022/09/12 06:10:01;;;;;;;14.02;12.30;;;;;;;10.65;86.03;99793.31;4945051;29;20035;-61
2022/09/12 06:12:29;;;;;;;13.15;10.82;;;;;;;10.60;85.44;99774.44;4944981;29;20236;-62
2022/09/12 06:14:54;;;;;;;12.48;11.20;;;;;;;10.80;85.42;99779.22;4950578;29;20050;-62
2022/09/12 06:17:21;;;;;;;13.15;11.70;;;;;;;10.92;84.79;99782.44;4967669;29;20035;-61
2022/09/12 06:19:48;;;;;;;11.68;10.55;;;;;;;10.74;85.16;99773.31;4950701;29;20055;-61
2022/09/12 06:22:14;;;;;;;13.20;11.40;;;;;;;10.73;85.61;99787.13;4960857;29;20038;-61
2022/09/12 06:24:39;;;;;;;12.75;11.00;;;;;;;10.69;85.90;99788.94;4967486;29;20029;-61
2022/09/12 06:27:05;;;;;;;12.48;11.15;;;;;;;10.65;86.21;99788.16;4960216;29;20039;-61
2022/09/12 06:29:31;;;;;;;13.63;11.07;;;;;;;10.69;85.78;99788.94;4948426;29;20039;-61
2022/09/12 06:31:57;;;;;;;11.63;9.90;;;;;;;10.66;86.21;99796.75;4948355;29;20028;-61
2022/09/12 06:34:23;;;;;;;14.48;11.18;;;;;;;10.71;86.16;99792.34;4948139;29;20028;-61
2022/09/12 06:36:49;;;;;;;11.48;10.27;;;;;;;10.71;85.98;99790.59;4948175;29;20029;-61
2022/09/12 06:39:16;;;;;;;11.55;9.82;;;;;;;10.74;86.52;99802.66;4948480;29;20034;-62
2022/09/12 06:41:43;;;;;;;10.13;9.10;;;;;;;10.68;86.14;99793.25;4948289;29;20031;-62
2022/09/12 06:44:12;;;;;;;12.90;10.35;;;;;;;10.54;87.12;99784.91;4948097;29;20032;-61
2022/09/12 06:46:38;;;;;;;12.88;10.93;;;;;;;10.70;87.17;99795.81;4948028;29;20028;-62
2022/09/12 06:49:04;;;;;;;10.40;9.30;;;;;;;10.58;86.49;99801.25;4948008;29;20110;-61
2022/09/12 06:51:29;;;;;;;11.20;8.82;;;;;;;10.61;86.98;99796.84;4947897;29;20034;-61
2022/09/12 06:53:56;;;;;;;9.57;8.57;;;;;;;10.72;86.56;99794.06;4947966;29;20034;-62
2022/09/12 06:56:25;;;;;;;10.32;9.05;;;;;;;10.61;86.88;99791.69;4948006;29;20024;-62
2022/09/12 06:58:51;;;;;;;10.52;8.95;;;;;;;10.83;86.31;99797.28;4948038;29;20027;-63
2022/09/12 07:01:29;;;;;;;10.45;9.25;;;;;;;10.71;86.20;99784.59;4965708;29;20034;-61
2022/09/12 07:04:00;;;;;;;9.35;8.38;;;;;;;10.47;85.95;99745.34;4957293;29;20023;-60
2022/09/12 07:06:30;;;;;;;8.30;7.45;;;;;;;10.46;86.06;99741.06;4947284;29;20035;-61
2022/09/12 07:08:58;;;;;;;13.70;8.75;;;;;;;10.52;86.40;99730.56;4947911;29;20051;-61
2022/09/12 07:11:27;;;;;;;9.25;7.78;;;;;;;10.60;86.41;99786.53;4947103;29;20031;-60
2022/09/12 07:13:55;;;;;;;10.35;7.65;;;;;;;10.38;86.54;99731.75;4964566;29;20031;-61
2022/09/12 07:16:21;;;;;;;11.13;8.43;;;;;;;10.88;85.71;99785.06;4957593;29;20032;-60
2022/09/12 07:18:52;;;;;;;10.40;8.85;;;;;;;10.76;85.42;99785.34;4947121;29;20027;-61
2022/09/12 07:21:18;;;;;;;12.02;9.02;;;;;;;10.95;86.19;99779.78;4944845;29;20035;-60
2022/09/12 07:23:44;;;;;;;11.10;8.10;;;;;;;10.88;86.04;99792.00;4947012;29;20027;-60
2022/09/12 07:26:12;;;;;;;9.02;8.13;;;;;;;10.52;85.79;99735.75;4943453;29;20051;-59
2022/09/12 07:28:38;;;;;;;10.27;7.57;;;;;;;10.92;84.66;99785.88;4946937;29;20032;-63
2022/09/12 07:31:10;;;;;;;11.80;8.32;;;;;;;11.02;84.69;99800.34;4957628;29;20095;-63
2022/09/12 07:33:36;;;;;;;11.27;8.00;;;;;;;11.16;84.49;99789.69;4956664;29;20082;-59
2022/09/12 07:36:07;;;;;;;9.52;8.05;;;;;;;11.07;84.28;99779.50;4949060;29;20367;-59
2022/09/12 07:38:33;;;;;;;9.98;8.57;;;;;;;11.25;83.91;99786.03;4948416;29;20038;-58
2022/09/12 07:41:00;;;;;;;10.63;9.13;;;;;;;11.12;82.91;99793.22;4963719;29;20023;-59
2022/09/12 07:43:26;;;;;;;10.23;8.73;;;;;;;11.13;83.48;99799.25;4964551;29;20216;-59
2022/09/12 07:45:56;;;;;;;9.82;8.57;;;;;;;11.13;82.67;99792.34;4957225;29;20083;-59
2022/09/12 07:48:22;;;;;;;11.02;8.65;;;;;;;11.16;82.86;99797.44;4947151;29;20031;-59
2022/09/12 07:50:56;;;;;;;10.68;9.02;;;;;;;10.93;82.38;99734.91;4946836;29;20032;-59
2022/09/12 07:53:22;;;;;;;10.57;9.00;;;;;;;11.30;82.35;99806.66;4946904;29;20328;-59
2022/09/12 07:55:55;;;;;;;13.48;10.23;;;;;;;11.17;82.91;99804.34;4946670;29;20047;-61
2022/09/12 07:58:22;;;;;;;13.23;10.60;;;;;;;11.17;82.91;99806.94;4946793;29;20211;-61
2022/09/12 08:00:47;;;;;;;15.68;11.10;;;;;;;11.10;82.99;99810.56;4957206;29;20396;-61
2022/09/12 08:03:13;;;;;;;13.90;10.98;;;;;;;10.84;82.59;99773.06;4965727;29;20110;-62
2022/09/12 08:05:39;;;;;;;14.07;11.82;;;;;;;10.99;83.52;99807.34;4953026;29;20146;-61
2022/09/12 08:08:04;;;;;;;17.67;11.80;;;;;;;11.10;82.83;99813.16;4928001;29;20039;-61
2022/09/12 08:10:30;;;;;;;16.52;12.30;;;;;;;11.34;82.59;99809.16;4944253;29;20028;-63
2022/09/12 08:12:57;;;;;;;22.70;13.50;;;;;;;11.36;82.30;99809.13;4946274;29;20023;-62
2022/09/12 08:15:22;;;;;;;18.58;13.80;;;;;;;11.21;83.66;99799.94;4943785;29;20023;-62
2022/09/12 08:17:48;;;;;;;18.60;14.05;;;;;;;11.13;83.18;99802.72;4944749;29;20051;-62
2022/09/12 08:20:13;;;;;;;19.35;13.85;;;;;;;11.11;82.78;99814.00;4946564;29;20074;-62
2022/09/12 08:22:39;;;;;;;21.95;15.70;;;;;;;11.07;82.94;99810.59;4946270;29;20063;-62
2022/09/12 08:25:06;;;;;;;21.23;15.88;;;;;;;11.21;82.48;99810.31;4956406;29;20042;-62
2022/09/12 08:27:31;;;;;;;21.02;15.60;;;;;;;11.10;83.00;99809.69;4965429;29;20043;-62
2022/09/12 08:29:57;;;;;;;23.50;16.23;;;;;;;11.04;82.06;99808.06;4963999;29;20307;-62
2022/09/12 08:32:22;;;;;;;23.58;16.98;;;;;;;11.21;82.98;99813.75;4946286;29;20053;-61
2022/09/12 08:34:48;;;;;;;21.25;16.42;;;;;;;11.08;82.71;99812.31;4962063;29;20039;-62
2022/09/12 08:37:14;;;;;;;25.42;17.73;;;;;;;11.27;82.76;99809.31;4965111;28;20354;-62
2022/09/12 08:39:40;;;;;;;24.15;17.33;;;;;;;11.30;82.97;99812.72;4958304;29;20082;-61
2022/09/12 08:42:06;;;;;;;22.13;17.40;;;;;;;11.30;82.55;99815.31;4945867;29;20059;-61
2022/09/12 08:44:49;;;;;;;23.92;18.23;;;;;;;11.30;82.58;99809.25;4945778;29;20031;-62
2022/09/12 08:47:27;;;;;;;21.02;17.50;;;;;;;11.33;81.90;99807.44;4944597;29;20024;-61
2022/09/12 08:50:08;;;;;;;22.52;17.60;;;;;;;11.47;82.39;99801.94;4945757;29;20059;-62
2022/09/12 08:52:51;;;;;;;25.10;19.13;;;;;;;11.44;81.93;99809.78;4945754;29;20027;-62
2022/09/12 08:55:52;;;;;;;28.35;18.73;;;;;;;11.53;81.71;99809.59;4945686;29;20023;-63
2022/09/12 08:58:23;;;;;;;24.77;18.40;;;;;;;11.16;81.80;99752.50;4955582;29;20074;-62
2022/09/12 09:01:12;;;;;;;23.42;18.83;;;;;;;11.68;80.75;99804.91;4964937;29;20034;-63
2022/09/12 09:04:00;;;;;;;26.15;18.38;;;;;;;11.88;80.66;99805.25;4958443;29;20051;-62
2022/09/12 09:06:27;;;;;;;20.35;17.17;;;;;;;11.62;80.01;99802.47;4945357;29;20048;-62
2022/09/12 09:09:14;;;;;;;22.35;17.63;;;;;;;11.64;80.22;99808.47;4945718;29;20039;-63
2022/09/12 09:12:12;;;;;;;24.23;17.95;;;;;;;11.71;79.72;99799.66;4945633;29;20038;-63
2022/09/12 09:15:23;;;;;;;22.55;17.23;;;;;;;11.76;79.20;99805.59;4887398;29;20048;-62
2022/09/12 09:17:59;;;;;;;23.23;17.17;;;;;;;11.68;79.08;99799.72;4907411;29;20044;-61
2022/09/12 09:20:32;;;;;;;23.20;18.02;;;;;;;11.64;78.32;99749.66;4890776;29;20032;-61
2022/09/12 09:23:04;;;;;;;25.13;18.23;;;;;;;11.94;77.74;99795.66;4924157;29;20036;-61
2022/09/12 09:25:37;;;;;;;;;;;;;;;12.07;77.67;99791.84;4931985;29;20098;-61
2022/09/12 09:28:21;;;;;;;25.55;16.60;;;;;;;11.97;77.19;99741.06;4945301;29;19907;-62
2022/09/12 09:30:47;;;;;;;22.55;16.35;;;;;;;12.32;76.25;99794.66;4921164;29;20051;-62
2022/09/12 09:33:26;;;;;;;23.73;16.60;;;;;;;12.08;75.52;99739.91;4926137;29;20325;-62
2022/09/12 09:36:04;;;;;;;22.80;16.55;;;;;;;12.34;75.20;99797.22;4926294;29;20036;-62
2022/09/12 09:38:36;;;;;;;20.50;15.95;;;;;;;12.28;75.35;99805.19;4909460;29;20028;-61
2022/09/12 09:41:26;;;;;;;21.42;16.25;;;;;;;12.09;74.32;99800.47;4926306;29;20039;-61
2022/09/12 09:43:51;;;;;;;22.23;16.02;;;;;;;12.13;74.17;99804.69;4941936;29;20343;-61
2022/09/12 09:46:17;;;;;;;22.10;16.25;;;;;;;12.30;74.54;99801.66;4945189;29;20027;-62
2022/09/12 09:48:49;;;;;;;24.48;16.80;;;;;;;11.81;74.78;99761.34;4928605;29;20024;-62
2022/09/12 09:51:25;;;;;;;21.23;15.38;;;;;;;11.87;74.39;99818.28;4932441;29;20216;-61
2022/09/12 09:54:02;;;;;;;23.92;16.60;;;;;;;11.88;75.68;99805.25;4949219;29;20032;-61
2022/09/12 09:56:32;;;;;;;20.50;16.30;;;;;;;11.90;75.55;99787.94;4911259;29;20032;-62
2022/09/12 09:59:25;;;;;;;20.00;15.93;;;;;;;12.19;76.22;99809.72;4944133;29;20057;-61
2022/09/12 10:01:53;;;;;;;22.25;15.93;;;;;;;11.66;74.61;99754.81;4911166;29;20071;-62
2022/09/12 10:04:22;;;;;;;23.10;16.10;;;;;;;12.23;74.95;99819.13;4921973;29;20309;-62
2022/09/12 10:06:51;;;;;;;18.80;14.95;;;;;;;11.90;74.07;99750.75;4935098;29;20043;-63
2022/09/12 10:09:20;;;;;;;21.30;16.23;;;;;;;11.77;74.42;99755.38;4960595;29;20052;-61
2022/09/12 10:11:47;;;;;;;24.42;15.90;;;;;;;11.89;74.63;99812.16;4948242;29;20384;-63
2022/09/12 10:14:29;;;;;;;22.67;15.07;;;;;;;12.09;74.35;99810.84;4947350;29;20019;-63
2022/09/12 10:16:56;;;;;;;21.40;14.63;;;;;;;12.05;73.78;99815.25;4945946;29;20043;-65
2022/09/12 10:19:42;;;;;;;21.33;15.40;;;;;;;12.21;73.53;99807.94;4947356;29;20035;-63
2022/09/12 10:22:16;;;;;;;22.75;15.13;;;;;;;12.05;73.14;99750.38;4946127;29;20119;-62
2022/09/12 10:24:47;;;;;;;21.92;15.30;;;;;;;12.42;72.67;99808.25;4954140;29;20058;-61
2022/09/12 10:27:20;;;;;;;17.73;13.77;;;;;;;12.04;73.19;99755.59;4964190;29;20035;-64
2022/09/12 10:29:59;;;;;;;22.50;14.63;;;;;;;12.22;71.86;99747.31;4947926;29;20032;-62
2022/09/12 10:32:46;;;;;;;17.95;13.93;;;;;;;12.12;71.43;99748.47;4928979;29;20024;-63
2022/09/12 10:35:21;;;;;;;21.25;14.27;;;;;;;12.18;70.87;99755.22;4964550;29;20226;-64
2022/09/12 10:37:52;;;;;;;19.55;14.80;;;;;;;12.62;70.50;99799.06;4966598;29;20046;-65
2022/09/12 10:40:27;;;;;;;17.33;14.05;;;;;;;12.17;70.92;99759.59;4955719;29;20052;-65
2022/09/12 10:43:00;;;;;;;20.60;14.15;;;;;;;12.42;71.51;99803.06;4947381;29;20267;-62
2022/09/12 10:45:30;;;;;;;20.02;14.10;;;;;;;12.19;71.20;99814.91;4947906;29;20031;-63
2022/09/12 10:47:59;;;;;;;20.10;14.95;;;;;;;12.31;70.79;99815.47;4946571;29;20043;-66
2022/09/12 10:50:42;;;;;;;20.13;14.15;;;;;;;12.29;71.54;99805.13;4946044;29;20110;-64
2022/09/12 10:53:19;;;;;;;18.70;13.60;;;;;;;12.20;70.99;99806.25;4946944;29;20036;-64
2022/09/12 10:56:03;;;;;;;21.30;13.82;;;;;;;12.20;70.93;99813.16;4947055;29;20102;-63
2022/09/12 10:58:37;;;;;;;18.10;13.88;;;;;;;12.33;71.44;99798.13;4947321;29;20039;-65
2022/09/12 11:01:12;;;;;;;17.90;13.48;;;;;;;12.43;71.07;99792.63;4962024;29;20053;-64
2022/09/12 11:04:14;;;;;;;21.20;13.95;;;;;;;12.45;71.56;99791.75;4960555;29;20023;-65
2022/09/12 11:07:02;;;;;;;15.70;12.55;;;;;;;12.62;70.01;99799.91;4953099;29;20046;-60
2022/09/12 11:09:39;;;;;;;16.90;13.10;;;;;;;12.36;70.55;99738.31;4976657;28;20082;-63
2022/09/12 11:12:18;;;;;;;17.10;13.30;;;;;;;12.73;69.45;99790.06;4947125;29;20136;-63
2022/09/12 11:15:07;;;;;;;15.80;12.07;;;;;;;12.61;69.57;99813.78;4946991;29;20035;-63
2022/09/12 11:17:41;;;;;;;17.00;13.05;;;;;;;12.73;69.40;99769.28;4946482;29;20031;-63
2022/09/12 11:20:40;;;;;;;16.67;12.57;;;;;;;13.01;69.49;99783.22;4963681;29;20128;-64
2022/09/12 11:23:38;;;;;;;15.85;12.10;;;;;;;13.02;68.16;99787.50;4948162;29;20058;-64
2022/09/12 11:26:07;;;;;;;15.90;12.55;;;;;;;12.86;68.02;99795.75;4961130;29;20032;-64
2022/09/12 11:29:09;;;;;;;16.65;13.00;;;;;;;13.04;68.94;99788.31;4945911;29;20327;-63
2022/09/12 11:32:07;;;;;;;17.85;12.43;;;;;;;13.23;67.12;99794.66;4945586;29;20498;-64
2022/09/12 11:35:02;;;;;;;13.93;11.07;;;;;;;13.15;66.34;99788.84;4946245;29;20051;-62
2022/09/12 11:38:08;;;;;;;15.98;11.98;;;;;;;13.09;66.96;99791.63;4957015;28;20247;-62
2022/09/12 11:40:43;;;;;;;18.55;11.25;;;;;;;13.22;66.93;99772.16;4950764;29;20095;-62
2022/09/12 11:43:36;;;;;;;17.38;11.75;;;;;;;12.95;66.07;99785.09;4946560;29;20370;-62